Darstellungsparameter: Aktuell verwendete Einstellungen:
Skalierung der Graphiken ... ?
xyx+y,   Skalierungsfaktor:      Skalierung: Modus: x, Faktor: 1
Darstellungszeitraum ... ?
Vom - - bis: - -   Zeitraum: 09.05.2018 - 09.05.2018
Min/Max/Avg-Anzeige ... ?
Zeige MMA aktuell
Zeige MMA Monat
Zeige MMA alles
Zeige --A aktuell
Zeige --A Monat
Zeige --A alles
Keine MMA-Anzeige
MMA:
Average (ber die Originaldaten)
MMA-Basis: 23.02.2003 - 23.04.2020
Quicknavigation für Darstellung... ?
Tage:      1T, 2T, 3T, 5T -1T -2T -3T -5T +1T +2T +3T +5T
Wochen: 1W, 2W, 3W -1W -2W -3W +1W +2W +3W
Monate: 1M, 3M, 6M -1M -3M -6M +1M +3M +6M
Jahre:    1J, 3J, 5J, 10J -1J -3J -5J -10J +1J +3J +5J +10J
Nutze für die Darstellung ... ?
Originaldaten oder Mittelwerte auf ...
Stundenbasis Tagesbasis Wochenbasis
Monatsbasis Jahresbasis      Datenbasis: Original-Daten
Darstellen als:
Statistik (Auto) Statistik J:M      Darstellung:
Zur Graphik,    zurück zur Übersicht aller Sensoren.
 
Tabellarische Datenbersicht: ?
 
Sensor: Nr:Datum:Temp:Abs-Feuchte:Windchill:Wind:
Aussen-T/F 1 09-05-2018 00:00:00 14.2 C 8.67 g/m*3 14.2 C 0 km/h
2 09-05-2018 00:05:00 14.1 C 8.62 g/m*3 14.1 C 0 km/h
3 09-05-2018 00:10:00 13.9 C 8.63 g/m*3 13.9 C 0 km/h
4 09-05-2018 00:15:00 13.8 C 8.58 g/m*3 13.8 C 0 km/h
5 09-05-2018 00:20:00 13.7 C 8.64 g/m*3 13.7 C 0 km/h
6 09-05-2018 00:25:00 13.4 C 8.6 g/m*3 13.4 C 0 km/h
7 09-05-2018 00:30:00 13.3 C 8.55 g/m*3 13.3 C 0 km/h
8 09-05-2018 00:35:00 13.2 C 8.61 g/m*3 13.2 C 0 km/h
9 09-05-2018 00:40:00 13 C 8.39 g/m*3 13 C 0 km/h
10 09-05-2018 00:45:00 12.9 C 8.45 g/m*3 12.9 C 1.6 km/h
11 09-05-2018 00:50:00 13.1 C 8.67 g/m*3 13.1 C 4.8 km/h
12 09-05-2018 00:55:00 13.1 C 8.56 g/m*3 13.1 C 0 km/h
13 09-05-2018 01:00:00 13 C 8.51 g/m*3 13 C 0 km/h
14 09-05-2018 01:05:00 12.9 C 8.57 g/m*3 12.9 C 0 km/h
15 09-05-2018 01:10:00 12.9 C 8.57 g/m*3 12.9 C 0 km/h
16 09-05-2018 01:15:00 12.8 C 8.62 g/m*3 12.8 C 0 km/h
17 09-05-2018 01:20:00 12.8 C 8.62 g/m*3 12.8 C 0 km/h
18 09-05-2018 01:25:00 12.7 C 8.57 g/m*3 12.7 C 0 km/h
19 09-05-2018 01:30:00 12.6 C 8.52 g/m*3 12.6 C 0 km/h
20 09-05-2018 01:35:00 12.4 C 8.52 g/m*3 12.4 C 0 km/h
21 09-05-2018 01:40:00 12.3 C 8.47 g/m*3 12.3 C 0 km/h
22 09-05-2018 01:45:00 12.3 C 8.58 g/m*3 12.3 C 0 km/h
23 09-05-2018 01:50:00 12.3 C 8.58 g/m*3 12.3 C 0 km/h
24 09-05-2018 01:55:00 12.2 C 8.63 g/m*3 12.2 C 0 km/h
25 09-05-2018 02:00:00 12.2 C 8.63 g/m*3 12.2 C 0 km/h
Sensor: Nr:Datum:Temp:Abs-Feuchte:Windchill:Wind:
Aussen-T/F 26 09-05-2018 02:05:00 12.1 C 8.58 g/m*3 12.1 C 0 km/h
27 09-05-2018 02:10:00 12 C 8.53 g/m*3 12 C 0 km/h
28 09-05-2018 02:15:00 11.9 C 8.47 g/m*3 11.9 C 0 km/h
29 09-05-2018 02:20:00 11.8 C 8.42 g/m*3 11.8 C 0 km/h
30 09-05-2018 02:25:00 11.8 C 8.53 g/m*3 11.8 C 0 km/h
31 09-05-2018 02:30:00 11.7 C 8.47 g/m*3 11.7 C 0 km/h
32 09-05-2018 02:35:00 11.6 C 8.42 g/m*3 11.6 C 0 km/h
33 09-05-2018 02:40:00 11.6 C 8.52 g/m*3 11.6 C 0 km/h
34 09-05-2018 02:45:00 11.4 C 8.42 g/m*3 11.4 C 0 km/h
35 09-05-2018 02:50:00 11.3 C 8.36 g/m*3 11.3 C 0 km/h
36 09-05-2018 02:55:00 11.3 C 8.47 g/m*3 11.3 C 0 km/h
37 09-05-2018 03:00:00 11.2 C 8.51 g/m*3 11.2 C 0 km/h
38 09-05-2018 03:05:00 11.2 C 8.51 g/m*3 11.2 C 0 km/h
39 09-05-2018 03:10:00 11.2 C 8.51 g/m*3 11.2 C 0 km/h
40 09-05-2018 03:15:00 11.1 C 8.46 g/m*3 11.1 C 0 km/h
41 09-05-2018 03:20:00 11.1 C 8.56 g/m*3 11.1 C 0 km/h
42 09-05-2018 03:25:00 11.2 C 8.62 g/m*3 11.2 C 0 km/h
43 09-05-2018 03:30:00 11.2 C 8.62 g/m*3 11.2 C 0 km/h
44 09-05-2018 03:35:00 11.1 C 8.56 g/m*3 11.1 C 0 km/h
45 09-05-2018 03:40:00 11 C 8.51 g/m*3 11 C 0 km/h
46 09-05-2018 03:45:00 10.8 C 8.4 g/m*3 10.8 C 0 km/h
47 09-05-2018 03:50:00 10.8 C 8.4 g/m*3 10.8 C 0 km/h
48 09-05-2018 03:55:00 10.7 C 8.35 g/m*3 10.7 C 0 km/h
49 09-05-2018 04:00:00 10.5 C 8.34 g/m*3 10.5 C 0 km/h
50 09-05-2018 04:05:00 10.4 C 8.38 g/m*3 10.4 C 0 km/h
Sensor: Nr:Datum:Temp:Abs-Feuchte:Windchill:Wind:
Aussen-T/F 51 09-05-2018 04:10:00 10.3 C 8.33 g/m*3 10.3 C 0 km/h
52 09-05-2018 04:15:00 10.3 C 8.33 g/m*3 10.3 C 0 km/h
53 09-05-2018 04:20:00 10.2 C 8.28 g/m*3 10.2 C 0 km/h
54 09-05-2018 04:25:00 10.2 C 8.37 g/m*3 10.2 C 0 km/h
55 09-05-2018 04:30:00 10.1 C 8.32 g/m*3 10.1 C 0 km/h
56 09-05-2018 04:35:00 10.1 C 8.32 g/m*3 10.1 C 0 km/h
57 09-05-2018 04:40:00 10.1 C 8.32 g/m*3 10.1 C 0 km/h
58 09-05-2018 04:45:00 10 C 8.36 g/m*3 10 C 0 km/h
59 09-05-2018 04:50:00 9.9 C 8.31 g/m*3 9.9 C 0 km/h
60 09-05-2018 04:55:00 9.9 C 8.31 g/m*3 9.9 C 0 km/h
61 09-05-2018 05:00:00 9.8 C 8.26 g/m*3 9.8 C 0 km/h
62 09-05-2018 05:05:00 9.8 C 8.35 g/m*3 9.8 C 0 km/h
63 09-05-2018 05:10:00 9.8 C 8.35 g/m*3 9.8 C 0 km/h
64 09-05-2018 05:15:00 9.7 C 8.3 g/m*3 9.7 C 0 km/h
65 09-05-2018 05:20:00 9.7 C 8.3 g/m*3 9.7 C 0 km/h
66 09-05-2018 05:25:00 9.7 C 8.3 g/m*3 9.7 C 0 km/h
67 09-05-2018 05:30:00 9.6 C 8.24 g/m*3 9.6 C 0 km/h
68 09-05-2018 05:35:00 9.6 C 8.34 g/m*3 9.6 C 0 km/h
69 09-05-2018 05:40:00 9.6 C 8.34 g/m*3 9.6 C 0 km/h
70 09-05-2018 05:45:00 9.5 C 8.28 g/m*3 9.5 C 0 km/h
71 09-05-2018 05:50:00 9.4 C 8.23 g/m*3 9.4 C 0 km/h
72 09-05-2018 05:55:00 9.4 C 8.23 g/m*3 9.4 C 0 km/h
73 09-05-2018 06:00:00 9.4 C 8.23 g/m*3 9.4 C 0 km/h
74 09-05-2018 06:05:00 9.4 C 8.23 g/m*3 9.4 C 0 km/h
75 09-05-2018 06:10:00 9.4 C 8.23 g/m*3 9.4 C 0 km/h
Sensor: Nr:Datum:Temp:Abs-Feuchte:Windchill:Wind:
Aussen-T/F 76 09-05-2018 06:15:00 9.3 C 8.18 g/m*3 9.3 C 1.6 km/h
77 09-05-2018 06:20:00 9.3 C 8.18 g/m*3 9.3 C 0 km/h
78 09-05-2018 06:25:00 9.3 C 8.27 g/m*3 9.3 C 0 km/h
79 09-05-2018 06:30:00 9.3 C 8.27 g/m*3 9.3 C 0 km/h
80 09-05-2018 06:35:00 9.3 C 8.27 g/m*3 9.3 C 0 km/h
81 09-05-2018 06:40:00 9.3 C 8.27 g/m*3 9.3 C 0 km/h
82 09-05-2018 06:45:00 9.4 C 8.32 g/m*3 9.4 C 0 km/h
83 09-05-2018 06:50:00 9.4 C 8.32 g/m*3 9.4 C 0 km/h
84 09-05-2018 06:55:00 9.4 C 8.32 g/m*3 9.4 C 0 km/h
85 09-05-2018 07:00:00 9.6 C 8.52 g/m*3 9.6 C 0 km/h
86 09-05-2018 07:05:00 9.7 C 8.48 g/m*3 9.7 C 0 km/h
87 09-05-2018 07:10:00 9.7 C 8.48 g/m*3 9.7 C 0 km/h
88 09-05-2018 07:15:00 9.7 C 8.48 g/m*3 9.7 C 0 km/h
89 09-05-2018 07:20:00 9.8 C 8.63 g/m*3 9.8 C 0 km/h
90 09-05-2018 07:25:00 9.9 C 8.68 g/m*3 9.9 C 0 km/h
91 09-05-2018 07:30:00 10.1 C 8.7 g/m*3 10.1 C 0 km/h
92 09-05-2018 07:35:00 10.1 C 8.7 g/m*3 10.1 C 0 km/h
93 09-05-2018 07:40:00 10.1 C 8.7 g/m*3 10.1 C 0 km/h
94 09-05-2018 07:45:00 10.2 C 8.76 g/m*3 10.2 C 0 km/h
95 09-05-2018 07:50:00 10.2 C 8.76 g/m*3 10.2 C 0 km/h
96 09-05-2018 07:55:00 10.3 C 8.81 g/m*3 10.3 C 0 km/h
97 09-05-2018 08:00:00 10.3 C 8.81 g/m*3 10.3 C 0 km/h
98 09-05-2018 08:05:00 10.4 C 8.87 g/m*3 10.4 C 0 km/h
99 09-05-2018 08:10:00 10.6 C 8.98 g/m*3 10.6 C 0 km/h
100 09-05-2018 08:15:00 10.6 C 9.08 g/m*3 10.6 C 0 km/h
Sensor: Nr:Datum:Temp:Abs-Feuchte:Windchill:Wind:
Aussen-T/F 101 09-05-2018 08:20:00 10.7 C 9.13 g/m*3 10.7 C 0 km/h
102 09-05-2018 08:25:00 10.8 C 9.09 g/m*3 10.8 C 0 km/h
103 09-05-2018 08:30:00 10.9 C 9.15 g/m*3 10.9 C 0 km/h
104 09-05-2018 08:35:00 11.1 C 9.37 g/m*3 11.1 C 0 km/h
105 09-05-2018 08:40:00 11.2 C 9.43 g/m*3 11.2 C 0 km/h
106 09-05-2018 08:45:00 11.3 C 9.49 g/m*3 11.3 C 0 km/h
107 09-05-2018 08:50:00 11.5 C 9.61 g/m*3 11.5 C 0 km/h
108 09-05-2018 08:55:00 11.6 C 9.67 g/m*3 11.6 C 0 km/h
109 09-05-2018 09:00:00 11.7 C 9.73 g/m*3 11.7 C 0 km/h
110 09-05-2018 09:05:00 11.8 C 9.79 g/m*3 11.8 C 0 km/h
111 09-05-2018 09:10:00 12 C 9.8 g/m*3 12 C 0 km/h
112 09-05-2018 09:15:00 12.1 C 9.87 g/m*3 12.1 C 0 km/h
113 09-05-2018 09:20:00 12.3 C 9.99 g/m*3 12.3 C 0 km/h
114 09-05-2018 09:25:00 12.4 C 10.05 g/m*3 12.4 C 0 km/h
115 09-05-2018 09:30:00 12.6 C 10.18 g/m*3 12.6 C 0 km/h
116 09-05-2018 09:35:00 12.8 C 10.3 g/m*3 12.8 C 0 km/h
117 09-05-2018 09:40:00 13 C 10.32 g/m*3 13 C 0 km/h
118 09-05-2018 09:45:00 13.2 C 10.45 g/m*3 13.2 C 0 km/h
119 09-05-2018 09:50:00 13.4 C 10.58 g/m*3 13.4 C 0 km/h
120 09-05-2018 09:55:00 13.7 C 10.78 g/m*3 13.7 C 0 km/h
121 09-05-2018 10:00:00 13.9 C 10.79 g/m*3 13.9 C 0 km/h
122 09-05-2018 10:05:00 14.2 C 10.99 g/m*3 14.2 C 0 km/h
123 09-05-2018 10:10:00 14.5 C 10.94 g/m*3 14.5 C 0 km/h
124 09-05-2018 10:15:00 14.8 C 10.89 g/m*3 14.8 C 0 km/h
125 09-05-2018 10:20:00 15.1 C 11.22 g/m*3 15.1 C 0 km/h
Sensor: Nr:Datum:Temp:Abs-Feuchte:Windchill:Wind:
Aussen-T/F 126 09-05-2018 10:25:00 15.3 C 11.23 g/m*3 15.3 C 0 km/h
127 09-05-2018 10:30:00 15.6 C 11.3 g/m*3 15.6 C 0 km/h
128 09-05-2018 10:35:00 15.8 C 11.44 g/m*3 15.8 C 0 km/h
129 09-05-2018 10:40:00 16.1 C 11.65 g/m*3 16.1 C 0 km/h
130 09-05-2018 10:45:00 16.3 C 11.52 g/m*3 16.3 C 0 km/h
131 09-05-2018 10:50:00 16.6 C 11.58 g/m*3 16.6 C 0 km/h
132 09-05-2018 10:55:00 16.9 C 11.65 g/m*3 16.9 C 1.6 km/h
133 09-05-2018 11:00:00 17.3 C 11.64 g/m*3 17.3 C 3.2 km/h
134 09-05-2018 11:05:00 17.7 C 11.47 g/m*3 17.7 C 0 km/h
135 09-05-2018 11:10:00 18 C 11.98 g/m*3 18 C 0 km/h
136 09-05-2018 11:15:00 18.2 C 11.97 g/m*3 18.2 C 0 km/h
137 09-05-2018 11:20:00 18.4 C 11.8 g/m*3 18.4 C 0 km/h
138 09-05-2018 11:25:00 18.7 C 12.01 g/m*3 18.7 C 0 km/h
139 09-05-2018 11:30:00 18.8 C 11.76 g/m*3 18.8 C 0 km/h
140 09-05-2018 11:35:00 19.2 C 12.04 g/m*3 19.2 C 0 km/h
141 09-05-2018 11:40:00 19.4 C 11.85 g/m*3 19.4 C 3.2 km/h
142 09-05-2018 11:45:00 19.7 C 11.55 g/m*3 19.7 C 1.6 km/h
143 09-05-2018 11:50:00 20.3 C 12.14 g/m*3 20.3 C 6.4 km/h
144 09-05-2018 11:55:00 20.7 C 11.7 g/m*3 20.7 C 3.2 km/h
145 09-05-2018 12:00:00 21 C 11.17 g/m*3 21 C 1.6 km/h
146 09-05-2018 12:05:00 21.3 C 11.37 g/m*3 21.3 C 6.4 km/h
147 09-05-2018 12:10:00 21.5 C 11.31 g/m*3 21.5 C 3.2 km/h
148 09-05-2018 12:15:00 21.8 C 10.36 g/m*3 21.8 C 4.8 km/h
149 09-05-2018 12:20:00 22.2 C 10.01 g/m*3 22.2 C 8.1 km/h
150 09-05-2018 12:25:00 22.5 C 9.99 g/m*3 22.5 C 6.4 km/h
Sensor: Nr:Datum:Temp:Abs-Feuchte:Windchill:Wind:
Aussen-T/F 151 09-05-2018 12:30:00 22.8 C 10.16 g/m*3 22.8 C 8.1 km/h
152 09-05-2018 12:35:00 23 C 10.48 g/m*3 23 C 6.4 km/h
153 09-05-2018 12:40:00 23.1 C 10.13 g/m*3 23.1 C 6.4 km/h
154 09-05-2018 12:45:00 23.3 C 10.25 g/m*3 23.3 C 6.4 km/h
155 09-05-2018 12:50:00 23.3 C 10.04 g/m*3 23.3 C 4.8 km/h
156 09-05-2018 12:55:00 23.3 C 10.04 g/m*3 23.3 C 6.4 km/h
157 09-05-2018 13:00:00 23.4 C 10.93 g/m*3 23.4 C 8.1 km/h
158 09-05-2018 13:05:00 23.3 C 9.83 g/m*3 23.3 C 4.8 km/h
159 09-05-2018 13:10:00 23.5 C 9.73 g/m*3 23.5 C 8.1 km/h
160 09-05-2018 13:15:00 23.9 C 9.3 g/m*3 23.9 C 9.7 km/h
161 09-05-2018 13:20:00 24.1 C 9.41 g/m*3 24.1 C 6.4 km/h
162 09-05-2018 13:25:00 24.2 C 9.68 g/m*3 24.2 C 9.7 km/h
163 09-05-2018 13:30:00 24.2 C 9.46 g/m*3 24.2 C 3.2 km/h
164 09-05-2018 13:35:00 24.3 C 9.52 g/m*3 24.3 C 9.7 km/h
165 09-05-2018 13:40:00 24.4 C 9.35 g/m*3 24.4 C 6.4 km/h
166 09-05-2018 13:45:00 24.5 C 10.3 g/m*3 24.5 C 4.8 km/h
167 09-05-2018 13:50:00 24.5 C 9.85 g/m*3 24.5 C 4.8 km/h
168 09-05-2018 13:55:00 24.4 C 9.35 g/m*3 24.4 C 4.8 km/h
169 09-05-2018 14:00:00 24.6 C 9 g/m*3 24.6 C 6.4 km/h
170 09-05-2018 14:05:00 24.7 C 9.51 g/m*3 24.7 C 4.8 km/h
171 09-05-2018 14:10:00 24.7 C 9.51 g/m*3 24.7 C 8.1 km/h
172 09-05-2018 14:15:00 24.8 C 8.88 g/m*3 24.8 C 8.1 km/h
173 09-05-2018 14:20:00 24.9 C 8.7 g/m*3 24.9 C 6.4 km/h
174 09-05-2018 14:25:00 25.1 C 8.8 g/m*3 25.1 C 6.4 km/h
175 09-05-2018 14:30:00 25.1 C 9.03 g/m*3 25.1 C 8.1 km/h
Sensor: Nr:Datum:Temp:Abs-Feuchte:Windchill:Wind:
Aussen-T/F 176 09-05-2018 14:35:00 25.3 C 9.36 g/m*3 25.3 C 6.4 km/h
177 09-05-2018 14:40:00 25.4 C 9.18 g/m*3 25.4 C 6.4 km/h
178 09-05-2018 14:45:00 25.7 C 9.1 g/m*3 25.7 C 9.7 km/h
179 09-05-2018 14:50:00 25.8 C 9.39 g/m*3 25.8 C 4.8 km/h
180 09-05-2018 14:55:00 26.1 C 9.06 g/m*3 26.1 C 3.2 km/h
181 09-05-2018 15:00:00 26.4 C 9.71 g/m*3 26.4 C 11.3 km/h
182 09-05-2018 15:05:00 26.5 C 9.76 g/m*3 26.5 C 11.3 km/h
183 09-05-2018 15:10:00 26.5 C 9.76 g/m*3 26.5 C 9.7 km/h
184 09-05-2018 15:15:00 26.6 C 9.82 g/m*3 26.6 C 11.3 km/h
185 09-05-2018 15:20:00 26.7 C 9.87 g/m*3 26.7 C 12.9 km/h
186 09-05-2018 15:25:00 26.9 C 9.98 g/m*3 26.9 C 11.3 km/h
187 09-05-2018 15:30:00 27.1 C 9.58 g/m*3 27.1 C 12.9 km/h
188 09-05-2018 15:35:00 27.2 C 9.63 g/m*3 27.2 C 8.1 km/h
189 09-05-2018 15:40:00 27.4 C 10 g/m*3 27.4 C 14.5 km/h
190 09-05-2018 15:45:00 27.7 C 10.43 g/m*3 27.7 C 11.3 km/h
191 09-05-2018 15:50:00 27.7 C 10.16 g/m*3 27.7 C 14.5 km/h
192 09-05-2018 15:55:00 27.2 C 10.93 g/m*3 27.2 C 6.4 km/h
193 09-05-2018 16:00:00 26.9 C 10.24 g/m*3 26.9 C 11.3 km/h
194 09-05-2018 16:05:00 26.5 C 10.51 g/m*3 26.5 C 8.1 km/h
195 09-05-2018 16:10:00 26.4 C 11.45 g/m*3 26.4 C 6.4 km/h
196 09-05-2018 16:15:00 26.8 C 10.69 g/m*3 26.8 C 1.6 km/h
197 09-05-2018 16:20:00 27.3 C 11.51 g/m*3 27.3 C 6.4 km/h
198 09-05-2018 16:25:00 27.8 C 10.76 g/m*3 27.8 C 8.1 km/h
199 09-05-2018 16:30:00 28 C 10.88 g/m*3 28 C 8.1 km/h
200 09-05-2018 16:35:00 28 C 10.33 g/m*3 28 C 11.3 km/h
Sensor: Nr:Datum:Temp:Abs-Feuchte:Windchill:Wind:
Aussen-T/F 201 09-05-2018 16:40:00 27.4 C 10.52 g/m*3 27.4 C 9.7 km/h
202 09-05-2018 16:45:00 26.7 C 10.63 g/m*3 26.7 C 11.3 km/h
203 09-05-2018 16:50:00 26.2 C 11.57 g/m*3 26.2 C 6.4 km/h
204 09-05-2018 16:55:00 25.9 C 11.38 g/m*3 25.9 C 0 km/h
205 09-05-2018 17:00:00 25.7 C 11.25 g/m*3 25.7 C 0 km/h
206 09-05-2018 17:05:00 25.4 C 12.01 g/m*3 25.4 C 0 km/h
207 09-05-2018 17:10:00 25.2 C 11.87 g/m*3 25.2 C 3.2 km/h
208 09-05-2018 17:15:00 24.9 C 12.36 g/m*3 24.9 C 1.6 km/h
209 09-05-2018 17:20:00 24.7 C 12.45 g/m*3 24.7 C 0 km/h
210 09-05-2018 17:25:00 24.4 C 13.13 g/m*3 24.4 C 0 km/h
211 09-05-2018 17:30:00 24.3 C 12.83 g/m*3 24.3 C 0 km/h
212 09-05-2018 17:35:00 24.2 C 12.98 g/m*3 24.2 C 0 km/h
213 09-05-2018 17:40:00 24.1 C 13.13 g/m*3 24.1 C 0 km/h
214 09-05-2018 17:45:00 23.9 C 13.2 g/m*3 23.9 C 0 km/h
215 09-05-2018 17:50:00 23.7 C 13.05 g/m*3 23.7 C 0 km/h
216 09-05-2018 17:55:00 23.5 C 12.9 g/m*3 23.5 C 0 km/h
217 09-05-2018 18:00:00 23.3 C 12.96 g/m*3 23.3 C 0 km/h
218 09-05-2018 18:05:00 23.2 C 13.1 g/m*3 23.2 C 0 km/h
219 09-05-2018 18:10:00 23.3 C 13.38 g/m*3 23.3 C 0 km/h
220 09-05-2018 18:15:00 23.6 C 13.82 g/m*3 23.6 C 0 km/h
221 09-05-2018 18:20:00 23.9 C 13.85 g/m*3 23.9 C 0 km/h
222 09-05-2018 18:25:00 24.2 C 13.42 g/m*3 24.2 C 0 km/h
223 09-05-2018 18:30:00 24.2 C 13.42 g/m*3 24.2 C 0 km/h
224 09-05-2018 18:35:00 24.1 C 13.57 g/m*3 24.1 C 0 km/h
225 09-05-2018 18:40:00 24.1 C 13.57 g/m*3 24.1 C 0 km/h
Sensor: Nr:Datum:Temp:Abs-Feuchte:Windchill:Wind:
Aussen-T/F 226 09-05-2018 18:45:00 24.1 C 13.35 g/m*3 24.1 C 0 km/h
227 09-05-2018 18:50:00 23.9 C 12.98 g/m*3 23.9 C 1.6 km/h
228 09-05-2018 18:55:00 23.8 C 12.91 g/m*3 23.8 C 0 km/h
229 09-05-2018 19:00:00 23.7 C 13.05 g/m*3 23.7 C 0 km/h
230 09-05-2018 19:05:00 23.6 C 12.97 g/m*3 23.6 C 0 km/h
231 09-05-2018 19:10:00 23.6 C 13.19 g/m*3 23.6 C 0 km/h
232 09-05-2018 19:15:00 23.6 C 12.97 g/m*3 23.6 C 1.6 km/h
233 09-05-2018 19:20:00 23.4 C 12.62 g/m*3 23.4 C 1.6 km/h
234 09-05-2018 19:25:00 23.2 C 12.47 g/m*3 23.2 C 1.6 km/h
235 09-05-2018 19:30:00 22.7 C 12.12 g/m*3 22.7 C 1.6 km/h
236 09-05-2018 19:35:00 22.2 C 11.98 g/m*3 22.2 C 1.6 km/h
237 09-05-2018 19:40:00 21.9 C 11.96 g/m*3 21.9 C 1.6 km/h
238 09-05-2018 19:45:00 21.6 C 11.57 g/m*3 21.6 C 1.6 km/h
239 09-05-2018 19:50:00 21.3 C 11.37 g/m*3 21.3 C 1.6 km/h
240 09-05-2018 19:55:00 21.1 C 11.24 g/m*3 21.1 C 1.6 km/h
241 09-05-2018 20:00:00 20.8 C 11.05 g/m*3 20.8 C 1.6 km/h
242 09-05-2018 20:05:00 20.6 C 11.1 g/m*3 20.6 C 1.6 km/h
243 09-05-2018 20:10:00 20.4 C 10.97 g/m*3 20.4 C 1.6 km/h
244 09-05-2018 20:15:00 20.3 C 10.9 g/m*3 20.3 C 1.6 km/h
245 09-05-2018 20:20:00 20.2 C 11.02 g/m*3 20.2 C 0 km/h
246 09-05-2018 20:25:00 20 C 10.89 g/m*3 20 C 0 km/h
247 09-05-2018 20:30:00 19.8 C 10.76 g/m*3 19.8 C 0 km/h
248 09-05-2018 20:35:00 19.7 C 11.04 g/m*3 19.7 C 0 km/h
249 09-05-2018 20:40:00 19.6 C 11.14 g/m*3 19.6 C 0 km/h
250 09-05-2018 20:45:00 19.3 C 11.11 g/m*3 19.3 C 0 km/h
Sensor: Nr:Datum:Temp:Abs-Feuchte:Windchill:Wind:
Aussen-T/F 251 09-05-2018 20:50:00 19.1 C 10.98 g/m*3 19.1 C 0 km/h
252 09-05-2018 20:55:00 18.8 C 10.95 g/m*3 18.8 C 0 km/h
253 09-05-2018 21:00:00 18.6 C 10.98 g/m*3 18.6 C 0 km/h
254 09-05-2018 21:05:00 18.3 C 10.94 g/m*3 18.3 C 0 km/h
255 09-05-2018 21:10:00 18.1 C 10.82 g/m*3 18.1 C 0 km/h
256 09-05-2018 21:15:00 17.9 C 10.69 g/m*3 17.9 C 0 km/h
257 09-05-2018 21:20:00 17.8 C 10.78 g/m*3 17.8 C 0 km/h
258 09-05-2018 21:25:00 17.6 C 10.8 g/m*3 17.6 C 0 km/h
259 09-05-2018 21:30:00 17.4 C 10.82 g/m*3 17.4 C 0 km/h
260 09-05-2018 21:35:00 17.2 C 10.69 g/m*3 17.2 C 0 km/h
261 09-05-2018 21:40:00 16.9 C 10.64 g/m*3 16.9 C 0 km/h
262 09-05-2018 21:45:00 16.8 C 10.72 g/m*3 16.8 C 0 km/h
263 09-05-2018 21:50:00 16.7 C 10.52 g/m*3 16.7 C 0 km/h
264 09-05-2018 21:55:00 16.7 C 10.66 g/m*3 16.7 C 0 km/h
265 09-05-2018 22:00:00 16.6 C 10.59 g/m*3 16.6 C 0 km/h
266 09-05-2018 22:05:00 16.6 C 10.45 g/m*3 16.6 C 0 km/h
267 09-05-2018 22:10:00 16.5 C 10.53 g/m*3 16.5 C 0 km/h
268 09-05-2018 22:15:00 16.4 C 10.47 g/m*3 16.4 C 0 km/h
269 09-05-2018 22:20:00 16.3 C 10.54 g/m*3 16.3 C 0 km/h
270 09-05-2018 22:25:00 16.1 C 10.42 g/m*3 16.1 C 0 km/h
271 09-05-2018 22:30:00 16 C 10.49 g/m*3 16 C 0 km/h
272 09-05-2018 22:35:00 15.9 C 10.43 g/m*3 15.9 C 0 km/h
273 09-05-2018 22:40:00 15.9 C 10.43 g/m*3 15.9 C 0 km/h
274 09-05-2018 22:45:00 15.8 C 10.36 g/m*3 15.8 C 0 km/h
275 09-05-2018 22:50:00 15.8 C 10.36 g/m*3 15.8 C 0 km/h
Sensor: Nr:Datum:Temp:Abs-Feuchte:Windchill:Wind:
Aussen-T/F 276 09-05-2018 22:55:00 15.8 C 10.5 g/m*3 15.8 C 0 km/h
277 09-05-2018 23:00:00 15.7 C 10.44 g/m*3 15.7 C 0 km/h
278 09-05-2018 23:05:00 15.6 C 10.37 g/m*3 15.6 C 0 km/h
279 09-05-2018 23:10:00 15.3 C 10.32 g/m*3 15.3 C 0 km/h
280 09-05-2018 23:15:00 15.2 C 10.38 g/m*3 15.2 C 0 km/h
281 09-05-2018 23:20:00 15.1 C 10.32 g/m*3 15.1 C 0 km/h
282 09-05-2018 23:25:00 15.1 C 10.45 g/m*3 15.1 C 0 km/h
283 09-05-2018 23:30:00 15.1 C 10.45 g/m*3 15.1 C 0 km/h
284 09-05-2018 23:35:00 15 C 10.39 g/m*3 15 C 0 km/h
285 09-05-2018 23:40:00 14.9 C 10.32 g/m*3 14.9 C 0 km/h
286 09-05-2018 23:45:00 14.8 C 10.39 g/m*3 14.8 C 0 km/h
287 09-05-2018 23:50:00 14.8 C 10.39 g/m*3 14.8 C 0 km/h
288 09-05-2018 23:55:00 14.8 C 10.26 g/m*3 14.8 C 0 km/h

Legende:
   Min
   Max


Maximal/Minimal-Werte vom 23.02.2003 - 23.04.2020

Sensor Min Max Avg
Temp
(Aussen-T/F)
-16.4 °C
20-12-2009  01:30:01
40.4 °C
25-07-2019  16:20:00
11.1 °C

Die Daten stammen von einer Davis Vantage Pro 2 Wetter-Station und werden unter Linux mit der Software wview2wettercgi und aufbereitet. Alle Angaben erfolgen ohne Gewähr für ihre Vollständigkeit oder Richtigkeit.
Kontakt: Rainer Krienke krienke@uni-koblenz.de . Meine Webseiten an der Uni Koblenz oder privat.
Version: $Revision: 0.78 $